Time,TemperatureF,DewpointF,PressureIn,WindDirection,WindDirectionDegrees,WindSpeedMPH,WindSpeedGustMPH,Humidity,HourlyPrecipIn,Conditions,Clouds,dailyrainin,SoftwareType,DateUTC
2013-04-13 00:00:00,45.4,24.2,30.33,NW,320,0.0,0.0,43,0.00,,,0.00,Wunderground v.1.15,2013-04-13 07:00:00,
2013-04-13 00:10:00,44.2,24.7,30.33,North,1,0.0,0.0,46,0.00,,,0.00,Wunderground v.1.15,2013-04-13 07:10:00,
2013-04-13 00:20:00,46.6,25.3,30.33,North,1,0.0,0.0,43,0.00,,,0.00,Wunderground v.1.15,2013-04-13 07:20:00,
2013-04-13 00:25:00,46.0,24.7,30.33,North,356,0.0,0.0,43,0.00,,,0.00,Wunderground v.1.15,2013-04-13 07:25:00,
2013-04-13 00:35:00,45.9,25.2,30.33,NNE,23,0.0,0.0,44,0.00,,,0.00,Wunderground v.1.15,2013-04-13 07:35:00,
2013-04-13 00:40:00,46.1,24.8,30.33,NNE,29,0.0,0.0,43,0.00,,,0.00,Wunderground v.1.15,2013-04-13 07:40:00,
2013-04-13 00:50:00,45.2,24.6,30.33,NE,34,0.0,0.0,44,0.00,,,0.00,Wunderground v.1.15,2013-04-13 07:50:00,
2013-04-13 00:55:00,44.2,24.2,30.33,NNE,23,0.0,0.0,45,0.00,,,0.00,Wunderground v.1.15,2013-04-13 07:55:00,
2013-04-13 01:05:00,44.3,23.7,30.32,NNE,26,0.0,0.0,44,0.00,,,0.00,Wunderground v.1.15,2013-04-13 08:05:00,
2013-04-13 01:15:00,43.8,23.8,30.33,NW,320,0.0,2.0,45,0.00,,,0.00,Wunderground v.1.15,2013-04-13 08:15:00,
2013-04-13 01:20:00,42.4,23.1,30.32,NE,39,0.0,0.0,46,0.00,,,0.00,Wunderground v.1.15,2013-04-13 08:20:00,
2013-04-13 01:30:00,40.4,22.7,30.32,North,352,0.0,0.0,49,0.00,,,0.00,Wunderground v.1.15,2013-04-13 08:30:00,
2013-04-13 01:35:00,40.0,23.3,30.32,North,352,0.0,0.0,51,0.00,,,0.00,Wunderground v.1.15,2013-04-13 08:35:00,
2013-04-13 01:45:00,39.7,24.4,30.32,East,94,0.0,0.0,54,0.00,,,0.00,Wunderground v.1.15,2013-04-13 08:45:00,
2013-04-13 01:50:00,40.1,23.9,30.32,East,92,0.0,0.0,52,0.00,,,0.00,Wunderground v.1.15,2013-04-13 08:50:00,
2013-04-13 02:00:00,39.6,23.9,30.32,NW,322,0.0,0.0,53,0.00,,,0.00,Wunderground v.1.15,2013-04-13 09:00:00,
2013-04-13 02:05:00,39.9,24.1,30.32,NW,322,0.0,0.0,53,0.00,,,0.00,Wunderground v.1.15,2013-04-13 09:05:00,
2013-04-13 02:15:00,37.8,23.1,30.32,NNW,338,0.0,0.0,55,0.00,,,0.00,Wunderground v.1.15,2013-04-13 09:15:00,
2013-04-13 02:20:00,37.6,22.0,30.32,NNW,337,0.0,0.0,53,0.00,,,0.00,Wunderground v.1.15,2013-04-13 09:20:00,
2013-04-13 02:25:00,37.5,23.6,30.32,NNW,337,0.0,0.0,57,0.00,,,0.00,Wunderground v.1.15,2013-04-13 09:25:00,
2013-04-13 02:35:00,37.6,22.9,30.32,NNW,338,0.0,0.0,55,0.00,,,0.00,Wunderground v.1.15,2013-04-13 09:35:00,
2013-04-13 02:40:00,36.7,21.6,30.31,NNW,338,0.0,0.0,54,0.00,,,0.00,Wunderground v.1.15,2013-04-13 09:40:00,
2013-04-13 02:50:00,35.0,21.7,30.31,NW,318,0.0,0.0,58,0.00,,,0.00,Wunderground v.1.15,2013-04-13 09:50:00,
2013-04-13 02:55:00,34.4,21.5,30.31,NW,318,0.0,0.0,59,0.00,,,0.00,Wunderground v.1.15,2013-04-13 09:55:00,
2013-04-13 03:05:00,34.4,22.3,30.31,North,10,0.0,0.0,61,0.00,,,0.00,Wunderground v.1.15,2013-04-13 10:05:00,
2013-04-13 03:10:00,34.4,21.5,30.31,North,10,0.0,0.0,59,0.00,,,0.00,Wunderground v.1.15,2013-04-13 10:10:00,
2013-04-13 03:20:00,34.1,21.7,30.32,NNW,347,0.0,1.0,60,0.00,,,0.00,Wunderground v.1.15,2013-04-13 10:20:00,
2013-04-13 03:25:00,34.1,22.0,30.32,NNE,25,1.0,1.0,61,0.00,,,0.00,Wunderground v.1.15,2013-04-13 10:25:00,
2013-04-13 03:35:00,36.2,24.0,30.32,NE,39,1.0,1.0,61,0.00,,,0.00,Wunderground v.1.15,2013-04-13 10:35:00,
2013-04-13 03:40:00,38.4,24.5,30.31,East,99,0.0,2.0,57,0.00,,,0.00,Wunderground v.1.15,2013-04-13 10:40:00,
2013-04-13 03:50:00,41.0,23.8,30.31,ESE,107,3.0,3.0,50,0.00,,,0.00,Wunderground v.1.15,2013-04-13 10:50:00,
2013-04-13 03:55:00,41.3,24.0,30.31,ESE,103,3.0,3.0,50,0.00,,,0.00,Wunderground v.1.15,2013-04-13 10:55:00,
2013-04-13 04:05:00,38.8,22.2,30.32,North,354,0.0,1.0,51,0.00,,,0.00,Wunderground v.1.15,2013-04-13 11:05:00,
2013-04-13 04:10:00,37.2,21.6,30.32,NNW,343,0.0,0.0,53,0.00,,,0.00,Wunderground v.1.15,2013-04-13 11:10:00,
2013-04-13 04:20:00,35.6,21.9,30.31,NNW,343,0.0,0.0,57,0.00,,,0.00,Wunderground v.1.15,2013-04-13 11:20:00,
2013-04-13 04:25:00,35.8,22.9,30.31,NNW,343,0.0,0.0,59,0.00,,,0.00,Wunderground v.1.15,2013-04-13 11:25:00,
2013-04-13 04:35:00,36.2,24.0,30.31,SE,130,0.0,0.0,61,0.00,,,0.00,Wunderground v.1.15,2013-04-13 11:35:00,
2013-04-13 04:40:00,38.8,24.9,30.31,ESE,121,0.0,0.0,57,0.00,,,0.00,Wunderground v.1.15,2013-04-13 11:40:00,
2013-04-13 04:50:00,38.0,21.9,30.31,NNW,348,0.0,0.0,52,0.00,,,0.00,Wunderground v.1.15,2013-04-13 11:50:00,
2013-04-13 04:55:00,36.8,22.6,30.31,NNW,348,0.0,0.0,56,0.00,,,0.00,Wunderground v.1.15,2013-04-13 11:55:00,
2013-04-13 05:05:00,34.2,20.9,30.31,NW,318,0.0,0.0,58,0.00,,,0.00,Wunderground v.1.15,2013-04-13 12:05:00,
2013-04-13 05:10:00,33.3,20.9,30.31,NW,318,0.0,0.0,60,0.00,,,0.00,Wunderground v.1.15,2013-04-13 12:10:00,
2013-04-13 05:20:00,32.6,21.0,30.31,NW,318,0.0,0.0,62,0.00,,,0.00,Wunderground v.1.15,2013-04-13 12:20:00,
2013-04-13 05:25:00,32.5,21.3,30.31,NW,324,0.0,0.0,63,0.00,,,0.00,Wunderground v.1.15,2013-04-13 12:25:00,
2013-04-13 05:35:00,33.5,22.2,30.31,NW,322,0.0,0.0,63,0.00,,,0.00,Wunderground v.1.15,2013-04-13 12:35:00,
2013-04-13 05:50:00,33.7,22.1,30.31,North,350,0.0,0.0,62,0.00,,,0.00,Wunderground v.1.15,2013-04-13 12:50:00,
2013-04-13 05:55:00,34.1,22.4,30.31,North,350,0.0,0.0,62,0.00,,,0.00,Wunderground v.1.15,2013-04-13 12:55:00,
2013-04-13 06:05:00,35.3,22.4,30.31,NNW,334,0.0,0.0,59,0.00,,,0.00,Wunderground v.1.15,2013-04-13 13:05:00,
2013-04-13 06:10:00,35.0,22.1,30.31,NNW,335,0.0,0.0,59,0.00,,,0.00,Wunderground v.1.15,2013-04-13 13:10:00,
2013-04-13 06:30:00,34.4,21.9,30.31,NW,310,0.0,0.0,60,0.00,,,0.00,Wunderground v.1.15,2013-04-13 13:30:00,
2013-04-13 06:35:00,34.9,21.6,30.31,NW,312,0.0,0.0,58,0.00,,,0.00,Wunderground v.1.15,2013-04-13 13:35:00,
2013-04-13 06:40:00,35.2,21.9,30.31,NW,310,0.0,0.0,58,0.00,,,0.00,Wunderground v.1.15,2013-04-13 13:40:00,
2013-04-13 06:50:00,36.0,22.2,30.31,NW,314,0.0,0.0,57,0.00,,,0.00,Wunderground v.1.15,2013-04-13 13:50:00,
2013-04-13 06:55:00,36.7,22.9,30.31,NW,319,0.0,1.0,57,0.00,,,0.00,Wunderground v.1.15,2013-04-13 13:55:00,
2013-04-13 07:05:00,38.4,23.6,30.32,NW,319,1.0,1.0,55,0.00,,,0.00,Wunderground v.1.15,2013-04-13 14:05:00,
2013-04-13 07:10:00,39.6,23.9,30.32,SSE,166,0.0,1.0,53,0.00,,,0.00,Wunderground v.1.15,2013-04-13 14:10:00,
2013-04-13 07:20:00,43.5,25.6,30.33,ESE,119,1.0,1.0,49,0.00,,,0.00,Wunderground v.1.15,2013-04-13 14:20:00,
2013-04-13 07:25:00,45.8,25.6,30.33,SE,127,1.0,1.0,45,0.00,,,0.00,Wunderground v.1.15,2013-04-13 14:25:00,
2013-04-13 07:35:00,49.2,25.9,30.33,SSE,162,2.0,3.0,40,0.00,,,0.00,Wunderground v.1.15,2013-04-13 14:35:00,
2013-04-13 07:40:00,50.0,26.0,30.33,SE,128,2.0,2.0,39,0.00,,,0.00,Wunderground v.1.15,2013-04-13 14:40:00,
2013-04-13 07:50:00,51.2,25.8,30.33,SW,222,2.0,2.0,37,0.00,,,0.00,Wunderground v.1.15,2013-04-13 14:50:00,
2013-04-13 07:55:00,51.8,25.7,30.33,SSE,159,2.0,2.0,36,0.00,,,0.00,Wunderground v.1.15,2013-04-13 14:55:00,
2013-04-13 08:05:00,53.2,26.9,30.33,SE,138,2.0,4.0,36,0.00,,,0.00,Wunderground v.1.15,2013-04-13 15:05:00,
2013-04-13 08:15:00,54.7,26.8,30.33,SSW,203,3.0,3.0,34,0.00,,,0.00,Wunderground v.1.15,2013-04-13 15:15:00,
2013-04-13 08:20:00,55.6,26.9,30.33,SSE,166,3.0,3.0,33,0.00,,,0.00,Wunderground v.1.15,2013-04-13 15:20:00,
2013-04-13 08:25:00,56.6,27.0,30.32,SSE,160,2.0,3.0,32,0.00,,,0.00,Wunderground v.1.15,2013-04-13 15:25:00,
2013-04-13 08:35:00,58.2,27.7,30.32,SSW,192,2.0,3.0,31,0.00,,,0.00,Wunderground v.1.15,2013-04-13 15:35:00,
2013-04-13 08:40:00,59.0,27.6,30.32,SSE,156,2.0,2.0,30,0.00,,,0.00,Wunderground v.1.15,2013-04-13 15:40:00,
2013-04-13 08:50:00,60.4,27.1,30.31,SE,142,2.0,3.0,28,0.00,,,0.00,Wunderground v.1.15,2013-04-13 15:50:00,
2013-04-13 08:55:00,61.1,25.9,30.31,SSW,198,3.0,4.0,26,0.00,,,0.00,Wunderground v.1.15,2013-04-13 15:55:00,
2013-04-13 09:05:00,62.0,26.7,30.30,SW,221,3.0,3.0,26,0.00,,,0.00,Wunderground v.1.15,2013-04-13 16:05:00,
2013-04-13 09:10:00,62.8,26.4,30.30,SSE,165,3.0,3.0,25,0.00,,,0.00,Wunderground v.1.15,2013-04-13 16:10:00,
2013-04-13 09:20:00,63.5,25.0,30.30,West,281,3.0,3.0,23,0.00,,,0.00,Wunderground v.1.15,2013-04-13 16:20:00,
2013-04-13 09:25:00,64.0,25.4,30.29,SW,228,3.0,10.0,23,0.00,,,0.00,Wunderground v.1.15,2013-04-13 16:25:00,
2013-04-13 09:35:00,64.7,27.0,30.29,SSW,204,3.0,6.0,24,0.00,,,0.00,Wunderground v.1.15,2013-04-13 16:35:00,
2013-04-13 09:40:00,65.1,26.3,30.29,SSE,165,3.0,3.0,23,0.00,,,0.00,Wunderground v.1.15,2013-04-13 16:40:00,
2013-04-13 09:50:00,65.6,27.8,30.29,WNW,287,4.0,4.0,24,0.00,,,0.00,Wunderground v.1.15,2013-04-13 16:50:00,
2013-04-13 09:55:00,65.5,27.7,30.29,NNW,330,4.0,7.0,24,0.00,,,0.00,Wunderground v.1.15,2013-04-13 16:55:00,
2013-04-13 10:05:00,66.8,27.8,30.29,NW,318,3.0,4.0,23,0.00,,,0.00,Wunderground v.1.15,2013-04-13 17:05:00,
2013-04-13 10:10:00,67.0,27.9,30.28,WNW,290,4.0,5.0,23,0.00,,,0.00,Wunderground v.1.15,2013-04-13 17:10:00,
2013-04-13 10:20:00,66.5,27.5,30.28,West,271,6.0,9.0,23,0.00,,,0.00,Wunderground v.1.15,2013-04-13 17:20:00,
2013-04-13 10:25:00,66.9,26.8,30.28,WNW,285,5.0,9.0,22,0.00,,,0.00,Wunderground v.1.15,2013-04-13 17:25:00,
2013-04-13 10:35:00,67.4,28.3,30.27,WNW,293,5.0,10.0,23,0.00,,,0.00,Wunderground v.1.15,2013-04-13 17:35:00,
2013-04-13 10:40:00,67.8,27.5,30.27,WNW,288,7.0,8.0,22,0.00,,,0.00,Wunderground v.1.15,2013-04-13 17:40:00,
2013-04-13 10:50:00,68.1,26.7,30.27,WSW,250,7.0,7.0,21,0.00,,,0.00,Wunderground v.1.15,2013-04-13 17:50:00,
2013-04-13 10:55:00,68.0,26.6,30.27,West,277,6.0,7.0,21,0.00,,,0.00,Wunderground v.1.15,2013-04-13 17:55:00,
2013-04-13 11:05:00,68.8,26.1,30.26,SW,217,5.0,6.0,20,0.00,,,0.00,Wunderground v.1.15,2013-04-13 18:05:00,
2013-04-13 11:10:00,69.4,26.6,30.26,WSW,248,5.0,5.0,20,0.00,,,0.00,Wunderground v.1.15,2013-04-13 18:10:00,
2013-04-13 11:20:00,69.4,26.6,30.26,WNW,292,6.0,6.0,20,0.00,,,0.00,Wunderground v.1.15,2013-04-13 18:20:00,
2013-04-13 11:25:00,70.0,25.8,30.25,West,262,6.0,6.0,19,0.00,,,0.00,Wunderground v.1.15,2013-04-13 18:25:00,
2013-04-13 11:30:00,70.3,26.1,30.25,West,281,6.0,6.0,19,0.00,,,0.00,Wunderground v.1.15,2013-04-13 18:30:00,
2013-04-13 11:35:00,70.5,24.9,30.25,West,277,6.0,8.0,18,0.00,,,0.00,Wunderground v.1.15,2013-04-13 18:35:00,
2013-04-13 11:40:00,70.0,24.5,30.24,West,281,6.0,6.0,18,0.00,,,0.00,Wunderground v.1.15,2013-04-13 18:40:00,
2013-04-13 11:50:00,71.1,24.0,30.24,West,262,6.0,16.0,17,0.00,,,0.00,Wunderground v.1.15,2013-04-13 18:50:00,
2013-04-13 11:55:00,71.1,22.6,30.24,SW,226,7.0,16.0,16,0.00,,,0.00,Wunderground v.1.15,2013-04-13 18:55:00,
2013-04-13 12:05:00,72.3,23.6,30.23,WNW,299,7.0,7.0,16,0.00,,,0.00,Wunderground v.1.15,2013-04-13 19:05:00,
2013-04-13 12:10:00,72.5,22.2,30.24,WNW,285,7.0,12.0,15,0.00,,,0.00,Wunderground v.1.15,2013-04-13 19:10:00,
2013-04-13 12:20:00,71.8,23.2,30.23,SSW,198,7.0,7.0,16,0.00,,,0.00,Wunderground v.1.15,2013-04-13 19:20:00,
2013-04-13 12:25:00,72.0,23.3,30.23,WNW,293,7.0,12.0,16,0.00,,,0.00,Wunderground v.1.15,2013-04-13 19:25:00,
2013-04-13 12:35:00,72.0,23.3,30.22,WSW,255,7.0,11.0,16,0.00,,,0.00,Wunderground v.1.15,2013-04-13 19:35:00,
2013-04-13 12:40:00,72.1,24.8,30.22,West,262,7.0,7.0,17,0.00,,,0.00,Wunderground v.1.15,2013-04-13 19:40:00,
2013-04-13 12:50:00,72.6,25.3,30.22,WNW,283,6.0,8.0,17,0.00,,,0.00,Wunderground v.1.15,2013-04-13 19:50:00,
2013-04-13 12:55:00,72.9,25.5,30.22,NW,315,7.0,10.0,17,0.00,,,0.00,Wunderground v.1.15,2013-04-13 19:55:00,
2013-04-13 13:05:00,72.4,22.1,30.21,WNW,284,9.0,14.0,15,0.00,,,0.00,Wunderground v.1.15,2013-04-13 20:05:00,
2013-04-13 13:10:00,72.9,24.0,30.21,West,260,9.0,9.0,16,0.00,,,0.00,Wunderground v.1.15,2013-04-13 20:10:00,
2013-04-13 13:20:00,72.3,22.0,30.20,West,273,9.0,9.0,15,0.00,,,0.00,Wunderground v.1.15,2013-04-13 20:20:00,
2013-04-13 13:25:00,72.5,22.2,30.21,West,278,9.0,10.0,15,0.00,,,0.00,Wunderground v.1.15,2013-04-13 20:25:00,
2013-04-13 13:35:00,72.4,22.1,30.20,West,278,9.0,9.0,15,0.00,,,0.00,Wunderground v.1.15,2013-04-13 20:35:00,
2013-04-13 13:40:00,72.2,21.9,30.19,WNW,301,10.0,15.0,15,0.00,,,0.00,Wunderground v.1.15,2013-04-13 20:40:00,
2013-04-13 13:50:00,73.0,20.9,30.19,West,278,8.0,8.0,14,0.00,,,0.00,Wunderground v.1.15,2013-04-13 20:50:00,
2013-04-13 13:55:00,73.1,21.0,30.19,SW,219,8.0,9.0,14,0.00,,,0.00,Wunderground v.1.15,2013-04-13 20:55:00,
2013-04-13 14:05:00,73.0,20.9,30.19,WNW,295,8.0,11.0,14,0.00,,,0.00,Wunderground v.1.15,2013-04-13 21:05:00,
2013-04-13 14:10:00,73.5,21.3,30.18,NNW,330,8.0,8.0,14,0.00,,,0.00,Wunderground v.1.15,2013-04-13 21:10:00,
2013-04-13 14:20:00,73.2,21.1,30.18,WNW,290,8.0,8.0,14,0.00,,,0.00,Wunderground v.1.15,2013-04-13 21:20:00,
2013-04-13 14:25:00,73.1,21.0,30.17,WNW,300,7.0,21.0,14,0.00,,,0.00,Wunderground v.1.15,2013-04-13 21:25:00,
2013-04-13 14:35:00,71.8,20.0,30.17,WSW,248,12.0,15.0,14,0.00,,,0.00,Wunderground v.1.15,2013-04-13 21:35:00,
2013-04-13 14:40:00,71.2,21.1,30.17,West,270,10.0,18.0,15,0.00,,,0.00,Wunderground v.1.15,2013-04-13 21:40:00,
2013-04-13 14:50:00,70.7,20.7,30.17,SW,226,10.0,10.0,15,0.00,,,0.00,Wunderground v.1.15,2013-04-13 21:50:00,
2013-04-13 14:55:00,70.3,21.9,30.16,WNW,288,9.0,10.0,16,0.00,,,0.00,Wunderground v.1.15,2013-04-13 21:55:00,
2013-04-13 15:05:00,70.0,21.7,30.16,West,281,9.0,9.0,16,0.00,,,0.00,Wunderground v.1.15,2013-04-13 22:05:00,
2013-04-13 15:10:00,71.0,21.0,30.15,NW,308,9.0,15.0,15,0.00,,,0.00,Wunderground v.1.15,2013-04-13 22:10:00,
2013-04-13 15:20:00,72.1,20.2,30.16,West,274,8.0,8.0,14,0.00,,,0.00,Wunderground v.1.15,2013-04-13 22:20:00,
2013-04-13 15:25:00,71.6,23.0,30.16,SW,219,9.0,9.0,16,0.00,,,0.00,Wunderground v.1.15,2013-04-13 22:25:00,
2013-04-13 15:35:00,72.0,21.8,30.16,West,266,8.0,11.0,15,0.00,,,0.00,Wunderground v.1.15,2013-04-13 22:35:00,
2013-04-13 15:40:00,72.0,21.8,30.15,WNW,290,8.0,10.0,15,0.00,,,0.00,Wunderground v.1.15,2013-04-13 22:40:00,
2013-04-13 15:50:00,72.3,22.0,30.15,WNW,290,7.0,10.0,15,0.00,,,0.00,Wunderground v.1.15,2013-04-13 22:50:00,
2013-04-13 15:55:00,72.7,22.3,30.14,South,189,7.0,14.0,15,0.00,,,0.00,Wunderground v.1.15,2013-04-13 22:55:00,
2013-04-13 16:05:00,72.3,20.4,30.14,SW,219,9.0,9.0,14,0.00,,,0.00,Wunderground v.1.15,2013-04-13 23:05:00,
2013-04-13 16:10:00,71.7,21.5,30.13,West,278,7.0,15.0,15,0.00,,,0.00,Wunderground v.1.15,2013-04-13 23:10:00,
2013-04-13 16:20:00,70.8,20.8,30.14,West,263,9.0,9.0,15,0.00,,,0.00,Wunderground v.1.15,2013-04-13 23:20:00,
2013-04-13 16:25:00,71.2,21.1,30.15,West,260,9.0,9.0,15,0.00,,,0.00,Wunderground v.1.15,2013-04-13 23:25:00,
2013-04-13 16:35:00,70.3,20.4,30.15,SSW,207,10.0,11.0,15,0.00,,,0.00,Wunderground v.1.15,2013-04-13 23:35:00,
2013-04-13 16:40:00,70.5,22.1,30.14,WNW,290,9.0,9.0,16,0.00,,,0.00,Wunderground v.1.15,2013-04-13 23:40:00,
2013-04-13 16:50:00,70.0,21.7,30.13,SW,236,7.0,10.0,16,0.00,,,0.00,Wunderground v.1.15,2013-04-13 23:50:00,
2013-04-13 16:55:00,69.0,22.3,30.13,WNW,295,7.0,11.0,17,0.00,,,0.00,Wunderground v.1.15,2013-04-13 23:55:00,
2013-04-13 17:05:00,69.2,22.5,30.13,NW,314,8.0,13.0,17,0.00,,,0.00,Wunderground v.1.15,2013-04-14 00:05:00,
2013-04-13 17:10:00,69.5,21.3,30.12,NW,318,7.0,7.0,16,0.00,,,0.00,Wunderground v.1.15,2013-04-14 00:10:00,
2013-04-13 17:20:00,69.8,20.0,30.13,West,263,8.0,11.0,15,0.00,,,0.00,Wunderground v.1.15,2013-04-14 00:20:00,
2013-04-13 17:25:00,69.2,21.1,30.12,WNW,293,8.0,11.0,16,0.00,,,0.00,Wunderground v.1.15,2013-04-14 00:25:00,
2013-04-13 17:35:00,68.4,20.4,30.11,WNW,288,8.0,8.0,16,0.00,,,0.00,Wunderground v.1.15,2013-04-14 00:35:00,
2013-04-13 17:40:00,68.2,20.2,30.12,West,267,8.0,8.0,16,0.00,,,0.00,Wunderground v.1.15,2013-04-14 00:40:00,
2013-04-13 17:50:00,68.0,20.1,30.12,NW,305,7.0,14.0,16,0.00,,,0.00,Wunderground v.1.15,2013-04-14 00:50:00,
2013-04-13 17:55:00,68.1,20.2,30.12,WNW,288,8.0,14.0,16,0.00,,,0.00,Wunderground v.1.15,2013-04-14 00:55:00,
2013-04-13 18:05:00,69.0,19.4,30.13,WNW,290,7.0,10.0,15,0.00,,,0.00,Wunderground v.1.15,2013-04-14 01:05:00,
2013-04-13 18:10:00,68.5,19.0,30.12,WNW,286,6.0,7.0,15,0.00,,,0.00,Wunderground v.1.15,2013-04-14 01:10:00,
2013-04-13 18:20:00,67.8,18.4,30.13,WNW,303,7.0,7.0,15,0.00,,,0.00,Wunderground v.1.15,2013-04-14 01:20:00,
2013-04-13 18:25:00,67.4,18.1,30.13,SW,235,8.0,10.0,15,0.00,,,0.00,Wunderground v.1.15,2013-04-14 01:25:00,
2013-04-13 18:35:00,65.9,19.8,30.13,NNW,330,8.0,12.0,17,0.00,,,0.00,Wunderground v.1.15,2013-04-14 01:35:00,
2013-04-13 18:40:00,65.2,19.2,30.13,WNW,293,7.0,7.0,17,0.00,,,0.00,Wunderground v.1.15,2013-04-14 01:40:00,
2013-04-13 18:50:00,64.6,20.1,30.13,NW,311,7.0,7.0,18,0.00,,,0.00,Wunderground v.1.15,2013-04-14 01:50:00,
2013-04-13 18:55:00,64.2,19.8,30.13,West,280,5.0,7.0,18,0.00,,,0.00,Wunderground v.1.15,2013-04-14 01:55:00,
2013-04-13 19:05:00,63.4,20.4,30.13,SSW,198,3.0,4.0,19,0.00,,,0.00,Wunderground v.1.15,2013-04-14 02:05:00,
2013-04-13 19:10:00,63.1,20.1,30.13,WNW,295,3.0,3.0,19,0.00,,,0.00,Wunderground v.1.15,2013-04-14 02:10:00,
2013-04-13 19:20:00,62.6,19.7,30.13,SW,221,4.0,6.0,19,0.00,,,0.00,Wunderground v.1.15,2013-04-14 02:20:00,
2013-04-13 19:25:00,62.3,20.7,30.13,SSW,209,4.0,6.0,20,0.00,,,0.00,Wunderground v.1.15,2013-04-14 02:25:00,
2013-04-13 19:35:00,61.7,20.2,30.13,SW,214,3.0,4.0,20,0.00,,,0.00,Wunderground v.1.15,2013-04-14 02:35:00,
2013-04-13 19:40:00,61.5,20.0,30.13,SSW,201,3.0,5.0,20,0.00,,,0.00,Wunderground v.1.15,2013-04-14 02:40:00,
2013-04-13 19:50:00,61.3,19.8,30.13,SW,225,4.0,6.0,20,0.00,,,0.00,Wunderground v.1.15,2013-04-14 02:50:00,
2013-04-13 19:55:00,61.2,19.8,30.13,WSW,252,4.0,9.0,20,0.00,,,0.00,Wunderground v.1.15,2013-04-14 02:55:00,
2013-04-13 20:05:00,61.2,18.6,30.13,SW,231,5.0,6.0,19,0.00,,,0.00,Wunderground v.1.15,2013-04-14 03:05:00,
2013-04-13 20:10:00,61.1,18.5,30.13,SW,219,5.0,8.0,19,0.00,,,0.00,Wunderground v.1.15,2013-04-14 03:10:00,
2013-04-13 20:20:00,60.6,18.1,30.14,SSW,204,4.0,4.0,19,0.00,,,0.00,Wunderground v.1.15,2013-04-14 03:20:00,
2013-04-13 20:25:00,60.4,19.1,30.14,South,184,4.0,4.0,20,0.00,,,0.00,Wunderground v.1.15,2013-04-14 03:25:00,
2013-04-13 20:35:00,59.9,18.7,30.14,ESE,113,4.0,6.0,20,0.00,,,0.00,Wunderground v.1.15,2013-04-14 03:35:00,
2013-04-13 20:40:00,59.7,18.5,30.15,WSW,252,4.0,4.0,20,0.00,,,0.00,Wunderground v.1.15,2013-04-14 03:40:00,
2013-04-13 20:50:00,59.3,19.3,30.15,SSW,205,3.0,3.0,21,0.00,,,0.00,Wunderground v.1.15,2013-04-14 03:50:00,
2013-04-13 20:55:00,59.0,19.1,30.15,SSW,200,3.0,3.0,21,0.00,,,0.00,Wunderground v.1.15,2013-04-14 03:55:00,
2013-04-13 21:00:00,58.6,18.7,30.15,South,190,3.0,3.0,21,0.00,,,0.00,Wunderground v.1.15,2013-04-14 04:00:00,
2013-04-13 21:05:00,58.3,19.6,30.15,SSW,203,3.0,3.0,22,0.00,,,0.00,Wunderground v.1.15,2013-04-14 04:05:00,
2013-04-13 21:10:00,58.2,19.5,30.16,SSW,200,3.0,3.0,22,0.00,,,0.00,Wunderground v.1.15,2013-04-14 04:10:00,
2013-04-13 21:20:00,57.6,20.0,30.17,SW,229,2.0,2.0,23,0.00,,,0.00,Wunderground v.1.15,2013-04-14 04:20:00,
2013-04-13 21:25:00,57.2,20.7,30.17,SW,228,2.0,2.0,24,0.00,,,0.00,Wunderground v.1.15,2013-04-14 04:25:00,
2013-04-13 21:30:00,57.0,20.5,30.17,South,188,2.0,3.0,24,0.00,,,0.00,Wunderground v.1.15,2013-04-14 04:30:00,
2013-04-13 21:40:00,56.8,21.3,30.18,SSW,207,2.0,2.0,25,0.00,,,0.00,Wunderground v.1.15,2013-04-14 04:40:00,
2013-04-13 21:50:00,55.8,20.5,30.18,South,172,1.0,1.0,25,0.00,,,0.00,Wunderground v.1.15,2013-04-14 04:50:00,
2013-04-13 21:55:00,55.5,21.1,30.18,SSW,197,1.0,2.0,26,0.00,,,0.00,Wunderground v.1.15,2013-04-14 04:55:00,
2013-04-13 22:05:00,55.5,22.9,30.17,WSW,248,2.0,2.0,28,0.00,,,0.00,Wunderground v.1.15,2013-04-14 05:05:00,
2013-04-13 22:10:00,55.5,22.9,30.17,SSW,198,2.0,3.0,28,0.00,,,0.00,Wunderground v.1.15,2013-04-14 05:10:00,
2013-04-13 22:20:00,55.6,23.8,30.17,SSW,211,2.0,2.0,29,0.00,,,0.00,Wunderground v.1.15,2013-04-14 05:20:00,
2013-04-13 22:25:00,55.5,23.7,30.17,SW,218,3.0,4.0,29,0.00,,,0.00,Wunderground v.1.15,2013-04-14 05:25:00,
2013-04-13 22:35:00,55.3,23.5,30.16,South,188,3.0,4.0,29,0.00,,,0.00,Wunderground v.1.15,2013-04-14 05:35:00,
2013-04-13 22:40:00,55.0,24.1,30.16,South,179,3.0,3.0,30,0.00,,,0.00,Wunderground v.1.15,2013-04-14 05:40:00,
2013-04-13 22:50:00,54.6,24.5,30.17,South,183,2.0,3.0,31,0.00,,,0.00,Wunderground v.1.15,2013-04-14 05:50:00,
2013-04-13 22:55:00,54.3,24.3,30.17,SW,220,2.0,4.0,31,0.00,,,0.00,Wunderground v.1.15,2013-04-14 05:55:00,
2013-04-13 23:05:00,54.4,25.1,30.16,SSW,205,3.0,4.0,32,0.00,,,0.00,Wunderground v.1.15,2013-04-14 06:05:00,
2013-04-13 23:10:00,54.6,26.0,30.16,SE,134,3.0,8.0,33,0.00,,,0.00,Wunderground v.1.15,2013-04-14 06:10:00,
2013-04-13 23:20:00,55.7,26.3,30.17,South,190,5.0,5.0,32,0.00,,,0.00,Wunderground v.1.15,2013-04-14 06:20:00,
2013-04-13 23:25:00,55.6,26.2,30.16,South,176,4.0,5.0,32,0.00,,,0.00,Wunderground v.1.15,2013-04-14 06:25:00,
2013-04-13 23:35:00,55.5,26.8,30.16,SSW,203,4.0,5.0,33,0.00,,,0.00,Wunderground v.1.15,2013-04-14 06:35:00,
2013-04-13 23:45:00,55.3,26.7,30.15,South,184,4.0,4.0,33,0.00,,,0.00,Wunderground v.1.15,2013-04-14 06:45:00,
2013-04-13 23:50:00,55.1,26.5,30.15,WSW,240,4.0,4.0,33,0.00,,,0.00,Wunderground v.1.15,2013-04-14 06:50:00,
2013-04-13 23:55:00,55.0,26.4,30.16,WSW,240,3.0,5.0,33,0.00,,,0.00,Wunderground v.1.15,2013-04-14 06:55:00,